createdAt,value
2022-07-29T00:00:01.048Z,8.90
2022-07-29T00:02:28.894Z,8.38
2022-07-29T00:04:55.677Z,7.53
2022-07-29T00:07:22.370Z,7.95
2022-07-29T00:09:51.110Z,7.75
2022-07-29T00:12:25.176Z,7.68
2022-07-29T00:14:54.269Z,7.88
2022-07-29T00:17:20.877Z,7.35
2022-07-29T00:19:47.506Z,7.43
2022-07-29T00:22:14.120Z,7.95
2022-07-29T00:24:40.701Z,7.78
2022-07-29T00:27:07.326Z,7.32
2022-07-29T00:29:34.912Z,7.13
2022-07-29T00:32:02.766Z,7.80
2022-07-29T00:34:49.680Z,7.63
2022-07-29T00:37:16.358Z,7.55
2022-07-29T00:39:43.219Z,7.18
2022-07-29T00:42:10.796Z,6.78
2022-07-29T00:44:39.428Z,8.45
2022-07-29T00:47:06.553Z,8.23
2022-07-29T00:49:34.596Z,8.23
2022-07-29T00:52:06.390Z,8.23
2022-07-29T00:54:34.833Z,8.18
2022-07-29T00:57:01.891Z,8.50
2022-07-29T00:59:34.605Z,9.43
2022-07-29T01:02:03.671Z,8.85
2022-07-29T01:04:31.893Z,9.77
2022-07-29T01:06:58.941Z,9.77
2022-07-29T01:09:42.964Z,10.23
2022-07-29T01:12:20.028Z,9.50
2022-07-29T01:14:48.597Z,10.23
2022-07-29T01:17:25.000Z,9.02
2022-07-29T01:20:03.194Z,9.35
2022-07-29T01:22:35.557Z,8.63
2022-07-29T01:25:29.892Z,9.30
2022-07-29T01:27:56.415Z,9.93
2022-07-29T01:30:25.881Z,9.45
2022-07-29T01:32:59.827Z,8.93
2022-07-29T01:35:32.563Z,8.52
2022-07-29T01:38:23.167Z,9.48
2022-07-29T01:40:59.741Z,10.25
2022-07-29T01:43:41.178Z,11.15
2022-07-29T01:46:15.610Z,9.27
2022-07-29T01:48:54.467Z,9.35
2022-07-29T01:51:28.272Z,9.60
2022-07-29T01:54:26.158Z,10.02
2022-07-29T01:56:54.749Z,9.40
2022-07-29T01:59:22.186Z,9.88
2022-07-29T02:01:54.507Z,9.40
2022-07-29T02:04:29.457Z,10.25
2022-07-29T02:07:01.607Z,8.77
2022-07-29T02:09:30.806Z,9.10
2022-07-29T02:12:00.431Z,10.27
2022-07-29T02:14:30.813Z,9.70
2022-07-29T02:17:01.174Z,8.48
2022-07-29T02:19:29.521Z,9.52
2022-07-29T02:21:58.708Z,8.25
2022-07-29T02:24:27.430Z,9.02
2022-07-29T02:26:56.554Z,8.52
2022-07-29T02:29:27.183Z,8.13
2022-07-29T02:31:55.237Z,8.13
2022-07-29T02:34:22.879Z,8.55
2022-07-29T02:36:50.850Z,8.15
2022-07-29T02:39:19.212Z,8.18
2022-07-29T02:41:49.442Z,8.43
2022-07-29T02:44:22.440Z,7.57
2022-07-29T02:47:07.508Z,7.22
2022-07-29T02:50:09.400Z,7.78
2022-07-29T02:52:38.803Z,7.13
2022-07-29T02:55:27.296Z,7.53
2022-07-29T02:58:09.494Z,6.53
2022-07-29T03:00:40.229Z,6.68
2022-07-29T03:03:12.328Z,7.18
2022-07-29T03:05:40.452Z,6.50
2022-07-29T03:08:10.469Z,7.22
2022-07-29T03:10:39.949Z,7.15
2022-07-29T03:13:07.479Z,6.90
2022-07-29T03:15:34.571Z,6.65
2022-07-29T03:18:01.745Z,7.75
2022-07-29T03:20:28.473Z,6.40
2022-07-29T03:22:55.213Z,6.43
2022-07-29T03:25:21.940Z,7.15
2022-07-29T03:27:49.287Z,6.63
2022-07-29T03:30:21.617Z,6.97
2022-07-29T03:32:49.362Z,7.45
2022-07-29T03:35:18.689Z,6.90
2022-07-29T03:37:46.046Z,6.47
2022-07-29T03:40:18.318Z,6.82
2022-07-29T03:42:46.747Z,6.25
2022-07-29T03:45:16.560Z,7.20
2022-07-29T03:47:50.622Z,6.38
2022-07-29T03:50:20.486Z,7.82
2022-07-29T03:52:48.497Z,7.43
2022-07-29T03:55:16.320Z,6.72
2022-07-29T03:57:45.699Z,6.43
2022-07-29T04:00:13.205Z,6.03
2022-07-29T04:02:41.031Z,6.97
2022-07-29T04:05:13.605Z,6.88
2022-07-29T04:07:41.195Z,6.85
2022-07-29T04:10:08.851Z,6.68
2022-07-29T04:12:36.134Z,6.80
2022-07-29T04:15:04.910Z,6.30
2022-07-29T04:17:31.712Z,6.63
2022-07-29T04:19:58.310Z,6.25
2022-07-29T04:22:24.986Z,6.97
2022-07-29T04:24:51.869Z,7.32
2022-07-29T04:27:18.570Z,7.00
2022-07-29T04:29:56.530Z,6.15
2022-07-29T04:32:25.188Z,6.72
2022-07-29T04:34:57.768Z,8.02
2022-07-29T04:37:24.643Z,7.07
2022-07-29T04:39:51.649Z,7.53
2022-07-29T04:42:18.255Z,7.35
2022-07-29T04:44:53.316Z,6.80
2022-07-29T04:47:20.032Z,6.85
2022-07-29T04:49:46.625Z,6.50
2022-07-29T04:52:13.236Z,5.88
2022-07-29T04:54:39.838Z,6.32
2022-07-29T04:57:06.434Z,6.18
2022-07-29T04:59:33.038Z,6.00
2022-07-29T05:01:59.757Z,5.80
2022-07-29T05:04:26.451Z,5.22
2022-07-29T05:06:53.089Z,6.20
2022-07-29T05:09:19.671Z,6.70
2022-07-29T05:11:46.319Z,6.18
2022-07-29T05:14:14.079Z,6.13
2022-07-29T05:16:41.289Z,6.72
2022-07-29T05:19:12.289Z,6.78
2022-07-29T05:21:40.955Z,6.20
2022-07-29T05:24:07.633Z,6.28
2022-07-29T05:26:34.265Z,5.55
2022-07-29T05:29:00.839Z,6.07
2022-07-29T05:31:27.500Z,6.25
2022-07-29T05:33:54.245Z,5.70
2022-07-29T05:36:20.868Z,5.45
2022-07-29T05:38:47.447Z,6.20
2022-07-29T05:41:14.127Z,6.35
2022-07-29T05:43:40.749Z,5.43
2022-07-29T05:46:07.365Z,5.60
2022-07-29T05:48:34.406Z,5.85
2022-07-29T05:51:01.255Z,5.95
2022-07-29T05:53:28.278Z,5.38
2022-07-29T05:55:54.939Z,5.93
2022-07-29T05:58:21.626Z,4.93
2022-07-29T06:00:48.290Z,5.30
2022-07-29T06:03:15.057Z,5.47
2022-07-29T06:05:41.847Z,5.13
2022-07-29T06:08:08.610Z,5.40
2022-07-29T06:10:38.459Z,5.43
2022-07-29T06:13:05.067Z,4.72
2022-07-29T06:15:31.783Z,5.30
2022-07-29T06:17:59.207Z,4.47
2022-07-29T06:20:31.279Z,4.82
2022-07-29T06:22:58.665Z,4.70
2022-07-29T06:25:25.301Z,4.50
2022-07-29T06:27:51.876Z,4.60
2022-07-29T06:30:18.595Z,4.47
2022-07-29T06:32:45.269Z,4.70
2022-07-29T06:35:37.677Z,4.50
2022-07-29T06:37:59.717Z,4.57
2022-07-29T06:41:02.258Z,5.07
2022-07-29T06:43:32.428Z,4.32
2022-07-29T06:46:02.328Z,4.95
2022-07-29T06:48:29.981Z,4.90
2022-07-29T06:50:56.813Z,4.25
2022-07-29T06:53:23.687Z,4.78
2022-07-29T06:55:50.430Z,5.07
2022-07-29T06:58:18.953Z,4.10
2022-07-29T07:00:46.092Z,5.00
2022-07-29T07:03:12.837Z,4.47
2022-07-29T07:05:39.922Z,4.50
2022-07-29T07:08:06.999Z,3.88
2022-07-29T07:10:34.073Z,4.18
2022-07-29T07:13:01.734Z,4.07
2022-07-29T07:15:38.859Z,4.28
2022-07-29T07:18:07.138Z,4.22
2022-07-29T07:20:34.969Z,4.22
2022-07-29T07:23:01.736Z,4.70
2022-07-29T07:25:28.952Z,4.25
2022-07-29T07:27:55.634Z,4.53
2022-07-29T07:30:22.375Z,4.57
2022-07-29T07:32:49.073Z,5.07
2022-07-29T07:35:15.760Z,4.32
2022-07-29T07:37:42.439Z,4.40
2022-07-29T07:40:12.599Z,4.43
2022-07-29T07:42:46.541Z,4.38
2022-07-29T07:45:15.857Z,4.72
2022-07-29T07:47:43.535Z,4.60
2022-07-29T07:50:18.076Z,5.10
2022-07-29T07:52:58.606Z,4.40
2022-07-29T07:55:26.570Z,4.60
2022-07-29T07:57:53.933Z,4.22
2022-07-29T08:00:23.040Z,4.35
2022-07-29T08:02:51.209Z,4.43
2022-07-29T08:05:18.912Z,4.95
2022-07-29T08:07:47.603Z,4.35
2022-07-29T08:10:36.455Z,4.60
2022-07-29T08:13:07.951Z,4.35
2022-07-29T08:15:35.132Z,4.53
2022-07-29T08:18:08.038Z,4.55
2022-07-29T08:20:36.594Z,4.82
2022-07-29T08:23:05.431Z,4.47
2022-07-29T08:25:32.157Z,4.85
2022-07-29T08:28:01.258Z,4.65
2022-07-29T08:30:28.475Z,4.97
2022-07-29T08:32:55.997Z,4.90
2022-07-29T08:35:24.285Z,4.68
2022-07-29T08:37:51.589Z,5.53
2022-07-29T08:40:18.719Z,5.18
2022-07-29T08:42:46.334Z,4.97
2022-07-29T08:45:14.489Z,4.57
2022-07-29T08:47:41.117Z,4.55
2022-07-29T08:50:09.646Z,5.03
2022-07-29T08:52:41.440Z,4.90
2022-07-29T08:55:09.788Z,4.60
2022-07-29T08:57:37.446Z,4.32
2022-07-29T09:00:11.880Z,4.72
2022-07-29T09:02:47.554Z,4.75
2022-07-29T09:05:15.115Z,4.75
2022-07-29T09:07:44.285Z,4.82
2022-07-29T09:10:11.205Z,4.70
2022-07-29T09:12:38.430Z,5.13
2022-07-29T09:15:05.580Z,5.20
2022-07-29T09:17:51.232Z,4.65
2022-07-29T09:20:20.507Z,4.82
2022-07-29T09:22:51.831Z,4.80
2022-07-29T09:28:12.478Z,4.90
2022-07-29T09:31:06.510Z,4.78
2022-07-29T09:33:36.628Z,4.50
2022-07-29T09:36:08.259Z,4.50
2022-07-29T09:38:38.422Z,4.35
2022-07-29T09:41:06.880Z,4.57
2022-07-29T09:43:34.418Z,5.30
2022-07-29T09:46:14.393Z,5.00
2022-07-29T09:48:41.192Z,4.72
2022-07-29T09:51:25.600Z,4.43
2022-07-29T09:53:56.792Z,4.38
2022-07-29T09:56:44.410Z,5.60
2022-07-29T09:59:13.020Z,4.53
2022-07-29T10:01:39.646Z,4.65
2022-07-29T10:04:06.577Z,4.30
2022-07-29T10:06:33.360Z,4.40
2022-07-29T10:09:12.414Z,4.60
2022-07-29T10:11:49.642Z,4.85
2022-07-29T10:14:17.250Z,4.72
2022-07-29T10:16:44.379Z,4.50
2022-07-29T10:19:11.414Z,4.60
2022-07-29T10:21:40.791Z,4.50
2022-07-29T10:24:14.814Z,4.72
2022-07-29T10:26:42.555Z,4.35
2022-07-29T10:29:09.148Z,4.20
2022-07-29T10:31:50.666Z,4.78
2022-07-29T10:34:54.786Z,4.47
2022-07-29T10:37:47.309Z,5.20
2022-07-29T10:40:41.434Z,4.63
2022-07-29T10:43:33.806Z,5.13
2022-07-29T10:46:01.571Z,5.50
2022-07-29T10:48:29.355Z,6.05
2022-07-29T10:51:05.533Z,5.05
2022-07-29T10:53:54.064Z,5.13
2022-07-29T10:56:32.314Z,5.57
2022-07-29T10:59:21.752Z,5.50
2022-07-29T11:01:54.279Z,5.57
2022-07-29T11:04:44.374Z,4.97
2022-07-29T11:07:12.921Z,5.40
2022-07-29T11:09:41.840Z,5.28
2022-07-29T11:12:39.332Z,5.47
2022-07-29T11:15:07.992Z,5.30
2022-07-29T11:17:53.683Z,5.38
2022-07-29T11:20:38.926Z,5.80
2022-07-29T11:23:33.347Z,5.60
2022-07-29T11:26:23.211Z,5.60
2022-07-29T11:28:56.070Z,5.95
2022-07-29T11:31:37.924Z,5.85
2022-07-29T11:34:27.954Z,5.50
2022-07-29T11:37:14.334Z,5.85
2022-07-29T11:40:01.535Z,5.28
2022-07-29T11:42:32.480Z,5.72
2022-07-29T11:45:43.337Z,5.47
2022-07-29T11:48:05.380Z,6.10
2022-07-29T11:50:45.961Z,5.35
2022-07-29T11:53:15.444Z,5.32
2022-07-29T11:55:50.928Z,6.13
2022-07-29T11:58:25.190Z,5.60
2022-07-29T12:00:53.106Z,6.30
2022-07-29T12:03:35.601Z,5.97
2022-07-29T12:06:12.291Z,5.90
2022-07-29T12:08:44.642Z,5.68
2022-07-29T12:11:20.810Z,5.72
2022-07-29T12:13:49.282Z,5.43
2022-07-29T12:16:25.626Z,5.40
2022-07-29T12:19:05.761Z,5.93
2022-07-29T12:21:56.800Z,5.68
2022-07-29T12:24:26.772Z,5.80
2022-07-29T12:26:58.599Z,5.82
2022-07-29T12:29:33.561Z,5.88
2022-07-29T12:32:02.358Z,6.00
2022-07-29T12:34:31.271Z,6.03
2022-07-29T12:36:58.056Z,6.30
2022-07-29T12:39:27.504Z,6.55
2022-07-29T12:42:04.716Z,6.15
2022-07-29T12:44:49.125Z,6.40
2022-07-29T12:47:17.043Z,5.93
2022-07-29T12:49:43.708Z,6.50
2022-07-29T12:52:33.845Z,5.85
2022-07-29T12:55:01.802Z,5.90
2022-07-29T12:57:29.191Z,6.10
2022-07-29T13:00:05.232Z,6.35
2022-07-29T13:02:31.951Z,5.80
2022-07-29T13:05:02.333Z,5.30
2022-07-29T13:07:54.570Z,5.70
2022-07-29T13:10:24.213Z,7.00
2022-07-29T13:13:04.693Z,6.05
2022-07-29T13:15:31.634Z,6.15
2022-07-29T13:17:59.268Z,6.00
2022-07-29T13:20:30.848Z,6.28
2022-07-29T13:23:01.610Z,6.07
2022-07-29T13:25:32.764Z,6.45
2022-07-29T13:28:01.235Z,6.18
2022-07-29T13:30:28.122Z,8.45
2022-07-29T13:32:56.050Z,6.75
2022-07-29T13:35:22.683Z,6.28
2022-07-29T13:37:49.246Z,6.75
2022-07-29T13:40:18.761Z,5.70
2022-07-29T13:42:46.243Z,5.82
2022-07-29T13:45:13.732Z,5.63
2022-07-29T13:47:43.596Z,5.82
2022-07-29T13:50:14.439Z,5.90
2022-07-29T13:52:41.065Z,5.80
2022-07-29T13:55:09.186Z,6.07
2022-07-29T13:57:36.465Z,6.00
2022-07-29T14:00:03.638Z,6.78
2022-07-29T14:02:30.323Z,6.53
2022-07-29T14:04:56.998Z,6.55
2022-07-29T14:07:23.770Z,6.35
2022-07-29T14:09:51.121Z,5.93
2022-07-29T14:12:17.828Z,6.47
2022-07-29T14:14:44.794Z,6.03
2022-07-29T14:17:14.125Z,6.47
2022-07-29T14:19:40.839Z,5.50
2022-07-29T14:22:09.653Z,6.25
2022-07-29T14:24:38.129Z,6.25
2022-07-29T14:27:07.128Z,6.78
2022-07-29T14:29:37.455Z,5.72
2022-07-29T14:32:07.182Z,5.80
2022-07-29T14:34:34.489Z,6.35
2022-07-29T14:37:01.101Z,6.28
2022-07-29T14:39:31.774Z,6.45
2022-07-29T14:42:01.756Z,6.65
2022-07-29T14:44:32.264Z,6.15
2022-07-29T14:47:08.079Z,6.38
2022-07-29T14:49:35.875Z,6.25
2022-07-29T14:52:02.829Z,5.68
2022-07-29T14:54:29.434Z,5.85
2022-07-29T14:56:58.330Z,6.03
2022-07-29T14:59:25.835Z,6.03
2022-07-29T15:01:52.569Z,6.38
2022-07-29T15:04:19.250Z,5.95
2022-07-29T15:06:45.883Z,6.45
2022-07-29T15:09:12.882Z,6.13
2022-07-29T15:11:39.537Z,6.18
2022-07-29T15:14:07.159Z,6.45
2022-07-29T15:16:36.143Z,5.70
2022-07-29T15:19:02.822Z,6.13
2022-07-29T15:21:29.485Z,5.85
2022-07-29T15:23:56.205Z,5.35
2022-07-29T15:26:22.887Z,6.15
2022-07-29T15:28:49.504Z,6.20
2022-07-29T15:31:16.208Z,6.00
2022-07-29T15:33:42.924Z,6.95
2022-07-29T15:36:09.703Z,6.70
2022-07-29T15:38:41.635Z,6.55
2022-07-29T15:41:09.134Z,5.80
2022-07-29T15:43:36.242Z,6.65
2022-07-29T15:46:21.566Z,6.75
2022-07-29T15:48:48.418Z,6.80
2022-07-29T15:51:16.130Z,7.25
2022-07-29T15:53:42.743Z,7.78
2022-07-29T15:56:09.372Z,6.70
2022-07-29T15:58:35.979Z,6.70
2022-07-29T16:01:02.683Z,7.03
2022-07-29T16:03:30.134Z,6.25
2022-07-29T16:05:57.283Z,6.53
2022-07-29T16:08:23.899Z,5.97
2022-07-29T16:10:50.710Z,6.00
2022-07-29T16:13:23.193Z,6.00
2022-07-29T16:16:02.968Z,6.13
2022-07-29T16:18:31.125Z,6.22
2022-07-29T16:20:58.013Z,6.72
2022-07-29T16:23:24.830Z,5.88
2022-07-29T16:25:59.673Z,6.43
2022-07-29T16:28:29.109Z,6.57
2022-07-29T16:30:55.797Z,6.15
2022-07-29T16:33:22.496Z,6.47
2022-07-29T16:35:52.411Z,6.50
2022-07-29T16:38:19.589Z,6.33
2022-07-29T16:40:46.299Z,6.40
2022-07-29T16:43:14.151Z,6.80
2022-07-29T16:45:46.481Z,6.13
2022-07-29T16:48:18.168Z,6.03
2022-07-29T16:50:45.770Z,6.63
2022-07-29T16:53:12.439Z,7.35
2022-07-29T16:55:41.998Z,6.65
2022-07-29T16:58:09.801Z,6.60
2022-07-29T17:00:36.683Z,7.40
2022-07-29T17:03:03.718Z,7.03
2022-07-29T17:05:52.763Z,6.82
2022-07-29T17:08:17.672Z,6.60
2022-07-29T17:10:44.381Z,7.28
2022-07-29T17:13:11.041Z,6.35
2022-07-29T17:15:37.715Z,6.15
2022-07-29T17:18:12.453Z,7.00
2022-07-29T17:20:41.966Z,7.30
2022-07-29T17:23:08.815Z,7.03
2022-07-29T17:25:35.524Z,7.50
2022-07-29T17:28:02.192Z,7.57
2022-07-29T17:30:29.892Z,7.65
2022-07-29T17:32:56.549Z,7.95
2022-07-29T17:35:47.741Z,7.97
2022-07-29T17:38:14.356Z,7.90
2022-07-29T17:40:40.996Z,8.40
2022-07-29T17:43:09.315Z,9.15
2022-07-29T17:45:50.028Z,11.23
2022-07-29T17:48:17.127Z,10.35
2022-07-29T17:50:43.794Z,10.32
2022-07-29T17:53:16.355Z,8.85
2022-07-29T17:55:48.741Z,8.70
2022-07-29T17:58:15.939Z,8.20
2022-07-29T18:00:42.871Z,8.70
2022-07-29T18:03:09.880Z,8.45
2022-07-29T18:05:36.835Z,11.93
2022-07-29T18:08:03.677Z,14.32
2022-07-29T18:10:30.369Z,15.25
2022-07-29T18:12:57.045Z,19.83
2022-07-29T18:15:23.665Z,21.77
2022-07-29T18:17:56.725Z,21.52
2022-07-29T18:20:25.837Z,18.08
2022-07-29T18:22:52.837Z,23.52
2022-07-29T18:25:19.609Z,21.65
2022-07-29T18:27:46.334Z,21.08
2022-07-29T18:30:15.049Z,21.77
2022-07-29T18:32:54.326Z,17.95
2022-07-29T18:35:28.972Z,14.25
2022-07-29T18:38:00.664Z,12.88
2022-07-29T18:40:29.767Z,10.60
2022-07-29T18:42:56.978Z,10.80
2022-07-29T18:45:28.290Z,10.15
2022-07-29T18:47:56.428Z,9.45
2022-07-29T18:50:28.885Z,9.70
2022-07-29T18:52:59.137Z,9.60
2022-07-29T18:55:26.499Z,9.32
2022-07-29T18:57:55.874Z,9.10
2022-07-29T19:00:24.008Z,9.45
2022-07-29T19:02:50.853Z,9.68
2022-07-29T19:05:17.589Z,9.52
2022-07-29T19:07:44.221Z,8.85
2022-07-29T19:10:11.292Z,9.30
2022-07-29T19:12:37.987Z,9.95
2022-07-29T19:15:04.866Z,9.20
2022-07-29T19:17:31.516Z,10.13
2022-07-29T19:19:58.994Z,9.25
2022-07-29T19:22:26.159Z,10.52
2022-07-29T19:24:53.379Z,10.07
2022-07-29T19:27:20.048Z,9.80
2022-07-29T19:29:46.656Z,9.95
2022-07-29T19:32:14.533Z,9.52
2022-07-29T19:35:10.411Z,10.00
2022-07-29T19:37:37.501Z,9.57
2022-07-29T19:40:05.342Z,9.57
2022-07-29T19:42:31.947Z,10.30
2022-07-29T19:44:58.556Z,8.93
2022-07-29T19:47:25.160Z,10.13
2022-07-29T19:49:51.860Z,9.25
2022-07-29T19:52:18.484Z,9.23
2022-07-29T19:54:45.228Z,9.82
2022-07-29T19:57:11.839Z,9.65
2022-07-29T19:59:38.825Z,9.35
2022-07-29T20:02:05.849Z,8.75
2022-07-29T20:04:32.533Z,9.57
2022-07-29T20:07:01.893Z,10.30
2022-07-29T20:09:28.862Z,10.48
2022-07-29T20:11:55.624Z,9.70
2022-07-29T20:14:22.709Z,9.43
2022-07-29T20:16:50.677Z,10.82
2022-07-29T20:19:17.626Z,10.30
2022-07-29T20:21:44.323Z,10.57
2022-07-29T20:24:11.444Z,9.30
2022-07-29T20:26:38.320Z,9.80
2022-07-29T20:29:05.419Z,10.13
2022-07-29T20:31:33.054Z,9.45
2022-07-29T20:34:01.067Z,10.55
2022-07-29T20:36:28.899Z,9.48
2022-07-29T20:38:56.021Z,9.88
2022-07-29T20:41:23.300Z,8.50
2022-07-29T20:43:50.160Z,9.50
2022-07-29T20:46:18.247Z,10.25
2022-07-29T20:48:45.756Z,10.73
2022-07-29T20:51:12.863Z,10.27
2022-07-29T20:53:40.651Z,10.18
2022-07-29T20:56:07.784Z,10.10
2022-07-29T20:58:36.181Z,9.73
2022-07-29T21:01:03.245Z,8.60
2022-07-29T21:03:30.149Z,9.98
2022-07-29T21:05:57.083Z,10.68
2022-07-29T21:08:23.874Z,11.10
2022-07-29T21:10:50.526Z,11.02
2022-07-29T21:13:18.250Z,12.13
2022-07-29T21:15:48.417Z,11.07
2022-07-29T21:18:32.434Z,11.27
2022-07-29T21:21:04.683Z,9.85
2022-07-29T21:23:31.679Z,10.80
2022-07-29T21:25:58.938Z,9.77
2022-07-29T21:28:51.930Z,9.43
2022-07-29T21:31:18.698Z,10.40
2022-07-29T21:33:46.627Z,10.13
2022-07-29T21:36:47.196Z,10.93
2022-07-29T21:39:06.917Z,10.57
2022-07-29T21:41:34.821Z,9.43
2022-07-29T21:44:01.578Z,9.98
2022-07-29T21:46:28.362Z,10.23
2022-07-29T21:48:55.135Z,10.50
2022-07-29T21:51:27.575Z,9.88
2022-07-29T21:53:54.238Z,10.40
2022-07-29T21:56:22.626Z,9.35
2022-07-29T21:58:54.300Z,9.35
2022-07-29T22:01:20.969Z,9.88
2022-07-29T22:03:47.620Z,9.25
2022-07-29T22:06:17.948Z,9.50
2022-07-29T22:08:45.796Z,10.07
2022-07-29T22:11:12.997Z,9.25
2022-07-29T22:13:39.639Z,9.77
2022-07-29T22:16:06.680Z,9.98
2022-07-29T22:18:33.251Z,9.38
2022-07-29T22:20:59.847Z,8.95
2022-07-29T22:23:26.531Z,8.68
2022-07-29T22:25:53.156Z,8.95
2022-07-29T22:28:19.895Z,8.55
2022-07-29T22:30:46.643Z,9.07
2022-07-29T22:33:17.447Z,9.10
2022-07-29T22:35:48.682Z,8.80
2022-07-29T22:38:16.552Z,9.30
2022-07-29T22:40:43.781Z,8.95
2022-07-29T22:43:10.674Z,9.65
2022-07-29T22:45:37.383Z,8.05
2022-07-29T22:48:04.400Z,8.68
2022-07-29T22:50:31.121Z,8.38
2022-07-29T22:52:57.769Z,8.77
2022-07-29T22:55:24.383Z,9.18
2022-07-29T22:57:51.041Z,8.85
2022-07-29T23:00:17.950Z,8.77
2022-07-29T23:02:44.609Z,8.43
2022-07-29T23:05:15.816Z,9.02
2022-07-29T23:07:42.847Z,9.60
2022-07-29T23:10:09.975Z,9.27
2022-07-29T23:12:36.828Z,9.60
2022-07-29T23:15:04.705Z,9.48
2022-07-29T23:17:31.430Z,10.75
2022-07-29T23:22:29.761Z,9.85
2022-07-29T23:24:58.762Z,10.15
2022-07-29T23:27:25.582Z,9.35
2022-07-29T23:29:52.199Z,10.35
2022-07-29T23:32:18.815Z,10.30
2022-07-29T23:34:45.413Z,10.05
2022-07-29T23:37:11.987Z,9.98
2022-07-29T23:39:38.612Z,10.43
2022-07-29T23:42:05.252Z,10.20
2022-07-29T23:44:31.874Z,9.82
2022-07-29T23:46:59.036Z,9.70
2022-07-29T23:49:25.839Z,11.02
2022-07-29T23:51:52.577Z,11.57
2022-07-29T23:54:19.333Z,10.55
2022-07-29T23:56:46.492Z,10.93
2022-07-29T23:59:13.203Z,10.75
